createdAt,value
2023-03-24T00:00:12.752Z,69.03
2023-03-24T00:03:17.722Z,68.98
2023-03-24T00:06:23.792Z,69.45
2023-03-24T00:09:26.543Z,69.89
2023-03-24T00:12:29.281Z,69.91
2023-03-24T00:15:32.114Z,69.32
2023-03-24T00:18:35.505Z,69.54
2023-03-24T00:21:38.106Z,69.94
2023-03-24T00:24:46.575Z,69.19
2023-03-24T00:27:49.750Z,69.30
2023-03-24T00:30:52.437Z,69.27
2023-03-24T00:33:55.636Z,69.97
2023-03-24T00:36:58.430Z,70.24
2023-03-24T00:40:01.209Z,70.64
2023-03-24T00:43:04.748Z,70.69
2023-03-24T00:46:11.973Z,70.02
2023-03-24T00:49:15.996Z,70.06
2023-03-24T00:52:25.337Z,70.16
2023-03-24T00:55:29.020Z,70.14
2023-03-24T00:58:34.761Z,70.14
2023-03-24T01:01:39.250Z,70.04
2023-03-24T01:04:46.619Z,70.33
2023-03-24T01:07:52.510Z,70.30
2023-03-24T01:10:55.765Z,70.26
2023-03-24T01:13:59.118Z,70.03
2023-03-24T01:17:02.052Z,70.73
2023-03-24T01:20:08.488Z,70.87
2023-03-24T01:23:14.586Z,70.88
2023-03-24T01:26:17.323Z,71.69
2023-03-24T01:29:20.275Z,71.59
2023-03-24T01:32:23.753Z,70.72
2023-03-24T01:35:31.199Z,70.62
2023-03-24T01:38:34.473Z,72.61
2023-03-24T01:41:41.094Z,73.41
2023-03-24T01:44:52.187Z,73.24
2023-03-24T01:47:56.359Z,72.19
2023-03-24T01:51:03.548Z,71.84
2023-03-24T01:54:15.430Z,72.34
2023-03-24T01:57:24.838Z,71.94
2023-03-24T02:00:27.938Z,71.05
2023-03-24T02:03:59.344Z,70.51
2023-03-24T02:07:09.373Z,70.92
2023-03-24T02:10:15.665Z,71.33
2023-03-24T02:13:18.408Z,72.80
2023-03-24T02:16:41.317Z,72.97
2023-03-24T02:20:13.869Z,73.75
2023-03-24T02:23:48.559Z,73.62
2023-03-24T02:27:00.156Z,73.00
2023-03-24T02:30:30.015Z,72.20
2023-03-24T02:33:51.469Z,74.05
2023-03-24T02:37:00.669Z,74.24
2023-03-24T02:40:12.653Z,73.87
2023-03-24T02:43:15.306Z,73.86
2023-03-24T02:46:24.296Z,74.51
2023-03-24T02:49:54.533Z,74.44
2023-03-24T02:53:16.926Z,74.08
2023-03-24T02:56:44.841Z,74.21
2023-03-24T03:00:23.800Z,75.34
2023-03-24T03:03:47.127Z,73.24
2023-03-24T03:06:54.408Z,72.73
2023-03-24T03:10:16.714Z,73.00
2023-03-24T03:13:32.910Z,73.01
2023-03-24T03:16:45.984Z,73.54
2023-03-24T03:19:55.823Z,74.00
2023-03-24T03:23:06.068Z,74.90
2023-03-24T03:26:13.355Z,74.58
2023-03-24T03:29:22.769Z,75.19
2023-03-24T03:32:28.933Z,74.38
2023-03-24T03:35:39.036Z,74.49
2023-03-24T03:39:11.253Z,75.04
2023-03-24T03:42:13.966Z,74.60
2023-03-24T03:45:16.821Z,74.06
2023-03-24T03:48:19.760Z,74.64
2023-03-24T03:51:22.478Z,74.19
2023-03-24T03:54:31.262Z,73.88
2023-03-24T03:57:35.045Z,73.63
2023-03-24T04:00:47.889Z,73.62
2023-03-24T04:04:26.430Z,74.96
2023-03-24T04:08:19.192Z,76.45
2023-03-24T04:12:05.157Z,76.90
2023-03-24T04:15:36.454Z,77.19
2023-03-24T04:19:05.711Z,78.62
2023-03-24T04:22:25.588Z,77.79
2023-03-24T04:25:50.385Z,76.76
2023-03-24T04:29:33.632Z,76.52
2023-03-24T04:33:00.927Z,77.70
2023-03-24T04:36:17.276Z,77.43
2023-03-24T04:39:43.175Z,76.35
2023-03-24T04:42:52.918Z,77.33
2023-03-24T04:45:59.498Z,76.77
2023-03-24T04:49:15.145Z,76.84
2023-03-24T04:52:19.766Z,75.62
2023-03-24T04:55:50.506Z,77.73
2023-03-24T04:59:14.054Z,76.41
2023-03-24T05:02:19.481Z,75.98
2023-03-24T05:05:49.313Z,76.55
2023-03-24T05:08:52.933Z,77.37
2023-03-24T05:11:56.116Z,78.71
2023-03-24T05:14:59.938Z,77.08
2023-03-24T05:18:04.165Z,77.68
2023-03-24T05:21:07.274Z,76.30
2023-03-24T05:24:12.899Z,77.68
2023-03-24T05:27:16.885Z,78.21
2023-03-24T05:30:20.886Z,78.26
2023-03-24T05:33:26.839Z,77.60
2023-03-24T05:36:31.714Z,76.45
2023-03-24T05:39:35.649Z,76.50
2023-03-24T05:42:43.692Z,75.18
2023-03-24T05:45:48.527Z,76.26
2023-03-24T05:49:02.108Z,77.44
2023-03-24T05:52:10.527Z,75.70
2023-03-24T05:55:16.380Z,75.72
2023-03-24T05:58:21.590Z,75.57
2023-03-24T06:01:26.555Z,74.99
2023-03-24T06:04:36.624Z,74.60
2023-03-24T06:07:46.343Z,74.33
2023-03-24T06:10:49.905Z,74.08
2023-03-24T06:13:52.977Z,74.87
2023-03-24T06:16:59.883Z,74.55
2023-03-24T06:20:06.531Z,74.10
2023-03-24T06:23:26.160Z,75.17
2023-03-24T06:26:37.204Z,73.08
2023-03-24T06:29:42.786Z,73.13
2023-03-24T06:32:47.132Z,73.20
2023-03-24T06:35:51.473Z,72.62
2023-03-24T06:38:55.021Z,73.58
2023-03-24T06:41:57.899Z,73.41
2023-03-24T06:45:01.114Z,74.04
2023-03-24T06:48:04.140Z,74.91
2023-03-24T06:51:07.397Z,75.55
2023-03-24T06:54:10.927Z,73.13
2023-03-24T06:57:13.835Z,71.97
2023-03-24T07:00:37.349Z,73.22
2023-03-24T07:04:00.267Z,74.32
2023-03-24T07:08:00.727Z,74.90
2023-03-24T07:11:07.934Z,74.55
2023-03-24T07:14:11.237Z,73.19
2023-03-24T07:17:15.286Z,77.26
2023-03-24T07:20:47.157Z,74.05
2023-03-24T07:23:52.649Z,74.44
2023-03-24T07:26:57.968Z,72.26
2023-03-24T07:30:02.264Z,70.00
2023-03-24T07:33:14.565Z,68.35
2023-03-24T07:36:20.724Z,65.26
2023-03-24T07:39:23.760Z,65.14
2023-03-24T07:42:26.765Z,64.76
2023-03-24T07:45:49.899Z,65.16
2023-03-24T07:48:52.794Z,65.53
2023-03-24T07:51:56.132Z,65.79
2023-03-24T07:55:12.325Z,66.25
2023-03-24T07:58:32.169Z,67.28
2023-03-24T08:01:58.439Z,67.46
2023-03-24T08:05:15.544Z,66.56
2023-03-24T08:08:18.153Z,66.95
2023-03-24T08:11:20.917Z,65.95
2023-03-24T08:14:25.826Z,66.92
2023-03-24T08:17:28.980Z,66.29
2023-03-24T08:20:32.068Z,66.33
2023-03-24T08:23:37.084Z,66.43
2023-03-24T08:26:40.404Z,66.13
2023-03-24T08:29:44.053Z,66.62
2023-03-24T08:32:48.962Z,66.08
2023-03-24T08:35:52.904Z,65.63
2023-03-24T08:38:56.424Z,62.34
2023-03-24T08:41:59.194Z,60.18
2023-03-24T08:45:01.900Z,60.76
2023-03-24T08:48:06.486Z,59.04
2023-03-24T08:51:14.256Z,58.54
2023-03-24T08:54:17.021Z,58.03
2023-03-24T08:57:19.724Z,58.37
2023-03-24T09:00:23.059Z,57.75
2023-03-24T09:03:26.569Z,57.20
2023-03-24T09:06:29.432Z,56.64
2023-03-24T09:09:33.886Z,56.41
2023-03-24T09:12:37.622Z,55.98
2023-03-24T09:15:40.503Z,55.54
2023-03-24T09:18:43.311Z,55.83
2023-03-24T09:21:48.107Z,55.74
2023-03-24T09:24:51.101Z,55.06
2023-03-24T09:27:53.961Z,54.23
2023-03-24T09:30:58.377Z,54.50
2023-03-24T09:34:04.109Z,54.28
2023-03-24T09:37:07.210Z,54.29
2023-03-24T09:40:27.092Z,52.99
2023-03-24T09:43:29.725Z,53.54
2023-03-24T09:46:36.427Z,53.32
2023-03-24T09:49:41.703Z,54.03
2023-03-24T09:52:45.939Z,53.64
2023-03-24T09:55:49.293Z,53.18
2023-03-24T09:59:19.822Z,53.02
2023-03-24T10:02:23.239Z,53.03
2023-03-24T10:05:39.229Z,52.51
2023-03-24T10:08:44.757Z,52.48
2023-03-24T10:12:24.969Z,52.14
2023-03-24T10:15:37.844Z,52.41
2023-03-24T10:18:46.338Z,52.35
2023-03-24T10:22:06.575Z,51.66
2023-03-24T10:25:21.903Z,51.74
2023-03-24T10:28:28.716Z,51.71
2023-03-24T10:31:31.956Z,50.98
2023-03-24T10:34:35.071Z,51.88
2023-03-24T10:37:37.894Z,52.57
2023-03-24T10:40:41.653Z,51.91
2023-03-24T10:43:45.898Z,50.58
2023-03-24T10:46:52.005Z,49.64
2023-03-24T10:49:58.957Z,48.58
2023-03-24T10:53:09.258Z,47.99
2023-03-24T10:56:16.777Z,48.97
2023-03-24T10:59:27.723Z,48.87
2023-03-24T11:02:32.652Z,47.80
2023-03-24T11:05:37.960Z,48.68
2023-03-24T11:08:42.270Z,47.13
2023-03-24T11:11:45.077Z,48.13
2023-03-24T11:14:47.824Z,47.11
2023-03-24T11:18:18.529Z,47.24
2023-03-24T11:21:21.595Z,46.60
2023-03-24T11:24:24.754Z,48.21
2023-03-24T11:27:27.783Z,47.72
2023-03-24T11:30:34.985Z,46.15
2023-03-24T11:33:48.399Z,45.84
2023-03-24T11:36:55.217Z,47.89
2023-03-24T11:40:13.278Z,45.80
2023-03-24T11:43:21.549Z,46.89
2023-03-24T11:46:26.886Z,46.80
2023-03-24T11:49:32.428Z,47.11
2023-03-24T11:52:40.915Z,46.26
2023-03-24T11:55:50.031Z,48.29
2023-03-24T11:59:31.807Z,45.75
2023-03-24T12:02:46.994Z,46.70
2023-03-24T12:06:08.353Z,46.14
2023-03-24T12:09:32.772Z,46.00
2023-03-24T12:13:22.066Z,45.68
2023-03-24T12:16:44.972Z,45.98
2023-03-24T12:20:15.770Z,45.93
2023-03-24T12:23:33.165Z,46.91
2023-03-24T12:26:36.274Z,47.10
2023-03-24T12:29:51.337Z,47.03
2023-03-24T12:33:04.031Z,46.71
2023-03-24T12:36:37.473Z,46.78
2023-03-24T12:40:10.537Z,46.75
2023-03-24T12:43:22.449Z,47.08
2023-03-24T12:50:12.590Z,46.79
2023-03-24T12:53:33.485Z,47.20
2023-03-24T12:56:43.809Z,46.98
2023-03-24T12:59:57.963Z,47.52
2023-03-24T13:03:56.540Z,47.89
2023-03-24T13:07:06.127Z,50.17
2023-03-24T13:10:16.867Z,47.99
2023-03-24T13:13:24.359Z,48.38
2023-03-24T13:16:31.225Z,49.24
2023-03-24T13:19:35.165Z,49.96
2023-03-24T13:22:38.242Z,50.34
2023-03-24T13:25:54.652Z,50.16
2023-03-24T13:29:03.485Z,50.47
2023-03-24T13:32:17.857Z,50.07
2023-03-24T13:35:52.298Z,49.79
2023-03-24T13:38:58.643Z,50.46
2023-03-24T13:42:01.936Z,51.28
2023-03-24T13:45:07.087Z,51.74
2023-03-24T13:48:09.756Z,51.62
2023-03-24T13:51:32.034Z,50.53
2023-03-24T13:54:38.050Z,51.23
2023-03-24T13:57:42.561Z,51.44
2023-03-24T14:01:05.047Z,50.93
2023-03-24T14:04:20.208Z,51.32
2023-03-24T14:07:35.186Z,51.54
2023-03-24T14:10:42.550Z,51.03
2023-03-24T14:13:49.591Z,50.64
2023-03-24T14:17:04.762Z,50.91
2023-03-24T14:20:10.941Z,50.49
2023-03-24T14:23:35.871Z,50.72
2023-03-24T14:26:38.809Z,51.01
2023-03-24T14:30:04.376Z,49.73
2023-03-24T14:33:24.494Z,50.15
2023-03-24T14:36:40.061Z,50.19
2023-03-24T14:39:47.541Z,50.73
2023-03-24T14:42:52.718Z,51.45
2023-03-24T14:46:00.941Z,49.86
2023-03-24T14:49:29.723Z,50.22
2023-03-24T14:52:40.976Z,49.88
2023-03-24T14:55:44.424Z,50.56
2023-03-24T14:58:49.597Z,50.97
2023-03-24T15:01:59.219Z,50.40
2023-03-24T15:05:23.656Z,49.83
2023-03-24T15:08:28.314Z,50.83
2023-03-24T15:11:34.080Z,51.27
2023-03-24T15:14:37.250Z,51.54
2023-03-24T15:17:42.991Z,51.91
2023-03-24T15:20:46.522Z,52.07
2023-03-24T15:23:49.861Z,52.42
2023-03-24T15:27:18.281Z,51.65
2023-03-24T15:30:21.831Z,52.67
2023-03-24T15:33:26.362Z,52.96
2023-03-24T15:36:35.200Z,52.55
2023-03-24T15:39:39.611Z,52.95
2023-03-24T15:42:44.915Z,53.21
2023-03-24T15:46:04.638Z,53.33
2023-03-24T15:49:21.282Z,52.88
2023-03-24T15:52:38.424Z,53.86
2023-03-24T15:55:43.870Z,54.23
2023-03-24T15:59:17.837Z,54.26
2023-03-24T16:02:39.696Z,54.38
2023-03-24T16:05:48.828Z,55.13
2023-03-24T16:08:51.874Z,54.54
2023-03-24T16:11:54.939Z,54.89
2023-03-24T16:14:57.814Z,55.23
2023-03-24T16:18:00.689Z,55.04
2023-03-24T16:21:21.418Z,54.52
2023-03-24T16:24:25.073Z,57.62
2023-03-24T16:27:29.984Z,60.16
2023-03-24T16:30:38.333Z,62.51
2023-03-24T16:33:41.096Z,63.41
2023-03-24T16:36:44.237Z,63.05
2023-03-24T16:39:46.954Z,63.76
2023-03-24T16:42:50.052Z,62.04
2023-03-24T16:45:53.314Z,61.58
2023-03-24T16:48:56.482Z,63.41
2023-03-24T16:52:02.606Z,66.17
2023-03-24T16:55:06.746Z,65.05
2023-03-24T16:58:11.436Z,65.08
2023-03-24T17:01:27.702Z,64.84
2023-03-24T17:04:34.315Z,65.19
2023-03-24T17:07:37.338Z,68.30
2023-03-24T17:10:42.067Z,66.18
2023-03-24T17:13:44.966Z,66.31
2023-03-24T17:16:49.487Z,69.83
2023-03-24T17:19:52.548Z,68.77
2023-03-24T17:22:57.230Z,68.53
2023-03-24T17:25:59.926Z,71.10
2023-03-24T17:29:04.641Z,68.06
2023-03-24T17:32:07.481Z,68.62
2023-03-24T17:35:15.865Z,73.66
2023-03-24T17:38:19.122Z,71.16
2023-03-24T17:41:22.197Z,70.17
2023-03-24T17:44:25.112Z,69.56
2023-03-24T17:47:27.983Z,72.45
2023-03-24T17:50:31.161Z,73.83
2023-03-24T17:53:34.152Z,75.92
2023-03-24T17:56:37.450Z,76.81
2023-03-24T17:59:40.239Z,81.47
2023-03-24T18:02:44.292Z,80.13
2023-03-24T18:05:47.088Z,84.70
2023-03-24T18:08:52.970Z,84.72
2023-03-24T18:11:56.592Z,87.05
2023-03-24T18:14:59.366Z,88.12
2023-03-24T18:18:07.568Z,88.26
2023-03-24T18:21:10.943Z,87.16
2023-03-24T18:24:13.863Z,85.39
2023-03-24T18:27:17.096Z,87.11
2023-03-24T18:30:23.105Z,92.10
2023-03-24T18:33:26.108Z,90.79
2023-03-24T18:36:32.310Z,90.22
2023-03-24T18:39:35.566Z,90.05
2023-03-24T18:42:38.895Z,92.60
2023-03-24T18:45:41.995Z,93.13
2023-03-24T18:48:45.522Z,94.91
2023-03-24T18:51:50.227Z,94.25
2023-03-24T18:54:54.552Z,93.83
2023-03-24T18:57:57.392Z,94.98
2023-03-24T19:01:07.776Z,95.07
2023-03-24T19:04:13.874Z,94.40
2023-03-24T19:07:24.656Z,94.74
2023-03-24T19:10:28.937Z,95.37
2023-03-24T19:13:32.171Z,93.66
2023-03-24T19:16:35.393Z,91.98
2023-03-24T19:19:38.844Z,90.69
2023-03-24T19:22:45.104Z,89.17
2023-03-24T19:25:55.384Z,88.01
2023-03-24T19:29:01.326Z,84.31
2023-03-24T19:32:04.567Z,86.66
2023-03-24T19:35:08.847Z,85.71
2023-03-24T19:38:11.739Z,85.94
2023-03-24T19:41:18.182Z,87.74
2023-03-24T19:44:23.095Z,87.53
2023-03-24T19:47:26.071Z,87.31
2023-03-24T19:50:28.898Z,86.56
2023-03-24T19:53:31.991Z,85.87
2023-03-24T19:56:34.824Z,87.42
2023-03-24T19:59:37.641Z,88.56
2023-03-24T20:02:41.732Z,87.21
2023-03-24T20:05:46.211Z,88.92
2023-03-24T20:08:49.244Z,88.12
2023-03-24T20:11:53.661Z,93.43
2023-03-24T20:14:56.708Z,90.96
2023-03-24T20:18:00.183Z,88.63
2023-03-24T20:21:07.506Z,87.97
2023-03-24T20:24:15.300Z,89.31
2023-03-24T20:27:19.167Z,90.68
2023-03-24T20:30:22.730Z,87.57
2023-03-24T20:33:30.200Z,86.79
2023-03-24T20:36:33.656Z,87.44
2023-03-24T20:39:38.379Z,89.64
2023-03-24T20:42:42.517Z,87.36
2023-03-24T20:45:48.505Z,86.00
2023-03-24T20:48:51.756Z,85.86
2023-03-24T20:51:55.216Z,86.87
2023-03-24T20:54:57.963Z,86.53
2023-03-24T20:58:02.578Z,87.28
2023-03-24T21:01:09.858Z,86.92
2023-03-24T21:04:13.193Z,86.08
2023-03-24T21:07:16.171Z,87.24
2023-03-24T21:10:20.217Z,88.60
2023-03-24T21:13:24.020Z,90.09
2023-03-24T21:16:34.125Z,87.11
2023-03-24T21:19:39.431Z,86.10
2023-03-24T21:22:53.991Z,85.66
2023-03-24T21:25:57.316Z,85.80
2023-03-24T21:29:01.643Z,87.88
2023-03-24T21:32:04.500Z,91.09
2023-03-24T21:35:09.669Z,90.80
2023-03-24T21:38:13.366Z,91.32
2023-03-24T21:41:17.791Z,90.25
2023-03-24T21:44:20.763Z,88.08
2023-03-24T21:47:26.037Z,89.06
2023-03-24T21:50:29.350Z,88.03
2023-03-24T21:53:32.296Z,89.13
2023-03-24T21:56:35.732Z,88.38
2023-03-24T21:59:41.366Z,88.77
2023-03-24T22:02:46.792Z,89.63
2023-03-24T22:05:49.695Z,88.49
2023-03-24T22:08:53.474Z,90.85
2023-03-24T22:11:59.255Z,88.91
2023-03-24T22:15:02.245Z,87.68
2023-03-24T22:18:06.412Z,87.87
2023-03-24T22:21:10.842Z,87.64
2023-03-24T22:24:13.858Z,88.32
2023-03-24T22:27:18.030Z,87.26
2023-03-24T22:30:24.619Z,88.48
2023-03-24T22:33:30.416Z,87.28
2023-03-24T22:36:33.155Z,88.74
2023-03-24T22:39:36.367Z,88.50
2023-03-24T22:42:39.472Z,88.26
2023-03-24T22:45:46.266Z,88.55
2023-03-24T22:48:49.661Z,88.94
2023-03-24T22:51:59.243Z,90.95
2023-03-24T22:55:02.255Z,92.35
2023-03-24T22:58:06.178Z,90.13
2023-03-24T23:01:09.811Z,91.55
2023-03-24T23:04:12.820Z,90.25
2023-03-24T23:07:16.576Z,89.58
2023-03-24T23:10:22.752Z,90.19
2023-03-24T23:13:26.712Z,91.39
2023-03-24T23:16:30.158Z,90.37
2023-03-24T23:19:34.636Z,89.68
2023-03-24T23:22:39.225Z,89.91
2023-03-24T23:25:43.942Z,89.53
2023-03-24T23:28:47.808Z,87.65
2023-03-24T23:31:50.881Z,89.50
2023-03-24T23:34:53.876Z,89.58
2023-03-24T23:37:56.815Z,92.54
2023-03-24T23:41:01.196Z,96.59
2023-03-24T23:44:03.899Z,93.51
2023-03-24T23:47:07.651Z,94.50
2023-03-24T23:50:11.740Z,93.68
2023-03-24T23:53:18.340Z,97.27
2023-03-24T23:56:21.873Z,95.54
2023-03-24T23:59:28.331Z,93.33
